createdAt,value
2017-08-30T00:01:16.930Z,100432.58
2017-08-30T00:03:44.331Z,100440.87
2017-08-30T00:06:11.730Z,100431.33
2017-08-30T00:08:39.128Z,100425.98
2017-08-30T00:11:06.526Z,100424.21
2017-08-30T00:13:33.926Z,100421.70
2017-08-30T00:16:01.335Z,100419.20
2017-08-30T00:18:28.727Z,100418.03
2017-08-30T00:20:56.123Z,100417.06
2017-08-30T00:23:23.518Z,100421.15
2017-08-30T00:26:02.715Z,100410.70
2017-08-30T00:28:30.120Z,100413.54
2017-08-30T00:30:57.519Z,100422.77
2017-08-30T00:33:25.124Z,100417.91
2017-08-30T00:35:52.560Z,100410.23
2017-08-30T00:38:19.959Z,100413.27
2017-08-30T00:40:47.357Z,100408.32
2017-08-30T00:43:14.767Z,100415.20
2017-08-30T00:45:42.158Z,100423.42
2017-08-30T00:48:09.562Z,100422.91
2017-08-30T00:50:37.251Z,100410.36
2017-08-30T00:53:04.648Z,100402.37
2017-08-30T00:55:32.053Z,100400.21
2017-08-30T00:57:59.455Z,100406.49
2017-08-30T01:00:26.860Z,100403.66
2017-08-30T01:02:54.263Z,100408.56
2017-08-30T01:05:21.669Z,100413.48
2017-08-30T01:07:49.080Z,100406.87
2017-08-30T01:10:16.475Z,100403.02
2017-08-30T01:12:43.884Z,100409.28
2017-08-30T01:15:11.510Z,100414.54
2017-08-30T01:17:38.910Z,100422.78
2017-08-30T01:20:06.311Z,100419.56
2017-08-30T01:22:33.719Z,100420.77
2017-08-30T01:25:01.119Z,100416.27
2017-08-30T01:27:28.515Z,100411.09
2017-08-30T01:29:55.908Z,100411.80
2017-08-30T01:32:23.324Z,100414.59
2017-08-30T01:34:50.955Z,100414.92
2017-08-30T01:37:18.362Z,100427.95
2017-08-30T01:39:45.750Z,100422.78
2017-08-30T01:42:13.155Z,100413.01
2017-08-30T01:44:40.542Z,100409.06
2017-08-30T01:47:07.957Z,100402.58
2017-08-30T01:49:35.342Z,100405.76
2017-08-30T01:52:02.754Z,100403.55
2017-08-30T01:54:30.143Z,100397.84
2017-08-30T01:56:57.558Z,100396.56
2017-08-30T01:59:24.955Z,100383.48
2017-08-30T02:01:52.359Z,100383.64
2017-08-30T02:04:19.756Z,100384.75
2017-08-30T02:06:47.156Z,100386.00
2017-08-30T02:09:14.767Z,100378.80
2017-08-30T02:11:42.172Z,100376.85
2017-08-30T02:14:09.577Z,100367.70
2017-08-30T02:16:37.299Z,100365.00
2017-08-30T02:19:04.727Z,100371.91
2017-08-30T02:21:32.101Z,100373.00
2017-08-30T02:23:59.505Z,100368.45
2017-08-30T02:26:26.894Z,100365.80
2017-08-30T02:28:54.302Z,100356.30
2017-08-30T02:31:21.707Z,100347.21
2017-08-30T02:33:49.111Z,100342.19
2017-08-30T02:36:16.504Z,100343.66
2017-08-30T02:38:43.907Z,100351.92
2017-08-30T02:41:11.314Z,100353.06
2017-08-30T02:43:38.699Z,100356.94
2017-08-30T02:46:06.108Z,100354.09
2017-08-30T02:48:33.507Z,100351.43
2017-08-30T02:51:00.915Z,100349.43
2017-08-30T02:53:28.306Z,100339.71
2017-08-30T02:55:55.717Z,100344.09
2017-08-30T02:58:23.115Z,100350.36
2017-08-30T03:00:50.514Z,100357.60
2017-08-30T03:03:17.924Z,100354.74
2017-08-30T03:05:45.328Z,100356.59
2017-08-30T03:08:12.726Z,100353.39
2017-08-30T03:10:40.134Z,100346.34
2017-08-30T03:13:07.539Z,100348.28
2017-08-30T03:15:34.944Z,100351.64
2017-08-30T03:18:02.339Z,100345.61
2017-08-30T03:20:29.755Z,100353.47
2017-08-30T03:22:57.147Z,100351.61
2017-08-30T03:25:24.551Z,100349.33
2017-08-30T03:27:51.943Z,100352.43
2017-08-30T03:30:19.347Z,100351.97
2017-08-30T03:32:46.738Z,100352.37
2017-08-30T03:35:14.138Z,100352.09
2017-08-30T03:37:41.535Z,100356.09
2017-08-30T03:40:08.954Z,100353.00
2017-08-30T03:42:36.341Z,100363.03
2017-08-30T03:45:03.739Z,100360.70
2017-08-30T03:47:31.143Z,100356.32
2017-08-30T03:49:58.538Z,100357.34
2017-08-30T03:52:26.258Z,100342.97
2017-08-30T03:54:53.655Z,100337.34
2017-08-30T03:57:21.063Z,100337.30
2017-08-30T03:59:48.458Z,100326.42
2017-08-30T04:02:15.861Z,100329.16
2017-08-30T04:04:43.245Z,100328.97
2017-08-30T04:07:10.652Z,100331.86
2017-08-30T04:09:38.042Z,100335.37
2017-08-30T04:12:05.442Z,100340.84
2017-08-30T04:14:32.843Z,100342.25
2017-08-30T04:17:00.244Z,100336.04
2017-08-30T04:19:27.647Z,100329.34
2017-08-30T04:21:55.052Z,100331.18
2017-08-30T04:24:22.446Z,100328.03
2017-08-30T04:26:49.847Z,100325.34
2017-08-30T04:29:17.494Z,100323.75
2017-08-30T04:31:45.159Z,100331.71
2017-08-30T04:34:12.543Z,100326.23
2017-08-30T04:36:39.978Z,100329.98
2017-08-30T04:39:07.384Z,100334.97
2017-08-30T04:41:34.795Z,100332.84
2017-08-30T04:44:02.233Z,100324.72
2017-08-30T04:46:29.623Z,100313.50
2017-08-30T04:48:57.033Z,100306.78
2017-08-30T04:51:24.460Z,100301.66
2017-08-30T04:53:51.859Z,100302.30
2017-08-30T04:56:19.259Z,100306.90
2017-08-30T04:58:46.660Z,100300.22
2017-08-30T05:01:14.054Z,100298.72
2017-08-30T05:03:41.470Z,100300.16
2017-08-30T05:06:08.867Z,100304.19
2017-08-30T05:08:36.279Z,100299.94
2017-08-30T05:11:03.685Z,100291.91
2017-08-30T05:13:31.098Z,100296.00
2017-08-30T05:15:58.502Z,100297.09
2017-08-30T05:18:25.908Z,100311.80
2017-08-30T05:20:53.518Z,100312.27
2017-08-30T05:23:20.919Z,100304.21
2017-08-30T05:25:48.318Z,100316.55
2017-08-30T05:28:15.729Z,100317.86
2017-08-30T05:30:43.120Z,100311.80
2017-08-30T05:33:10.513Z,100314.17
2017-08-30T05:35:38.136Z,100304.61
2017-08-30T05:38:05.540Z,100309.05
2017-08-30T05:40:32.938Z,100302.44
2017-08-30T05:43:00.330Z,100294.59
2017-08-30T05:45:27.726Z,100286.05
2017-08-30T05:47:55.131Z,100292.10
2017-08-30T05:50:22.536Z,100288.06
2017-08-30T05:52:49.938Z,100291.41
2017-08-30T05:55:17.342Z,100295.91
2017-08-30T05:57:44.733Z,100290.53
2017-08-30T06:00:12.144Z,100290.77
2017-08-30T06:02:39.539Z,100279.27
2017-08-30T06:05:06.949Z,100280.34
2017-08-30T06:07:34.348Z,100265.77
2017-08-30T06:10:01.743Z,100264.86
2017-08-30T06:12:29.145Z,100268.08
2017-08-30T06:14:56.555Z,100270.77
2017-08-30T06:17:23.950Z,100284.41
2017-08-30T06:19:51.350Z,100287.55
2017-08-30T06:22:18.755Z,100287.34
2017-08-30T06:24:46.152Z,100285.16
2017-08-30T06:27:13.547Z,100286.56
2017-08-30T06:29:40.951Z,100289.07
2017-08-30T06:32:08.347Z,100283.34
2017-08-30T06:34:35.747Z,100285.91
2017-08-30T06:37:03.161Z,100284.55
2017-08-30T06:39:30.558Z,100284.70
2017-08-30T06:41:57.971Z,100281.66
2017-08-30T06:44:25.362Z,100280.83
2017-08-30T06:46:52.768Z,100271.81
2017-08-30T06:49:20.166Z,100272.48
2017-08-30T06:51:47.584Z,100273.27
2017-08-30T06:54:14.980Z,100265.67
2017-08-30T06:56:42.394Z,100266.33
2017-08-30T06:59:09.789Z,100255.69
2017-08-30T07:01:37.187Z,100255.86
2017-08-30T07:04:04.587Z,100259.30
2017-08-30T07:06:31.996Z,100258.12
2017-08-30T07:08:59.391Z,100256.88
2017-08-30T07:11:26.786Z,100249.75
2017-08-30T07:13:54.222Z,100247.29
2017-08-30T07:16:21.623Z,100259.47
2017-08-30T07:18:49.010Z,100265.23
2017-08-30T07:21:16.419Z,100261.44
2017-08-30T07:23:43.806Z,100265.00
2017-08-30T07:26:11.215Z,100263.75
2017-08-30T07:28:38.603Z,100270.29
2017-08-30T07:31:05.999Z,100265.44
2017-08-30T07:33:33.391Z,100280.83
2017-08-30T07:36:00.791Z,100286.05
2017-08-30T07:38:28.190Z,100286.30
2017-08-30T07:40:55.827Z,100293.41
2017-08-30T07:43:23.226Z,100289.45
2017-08-30T07:45:50.622Z,100276.98
2017-08-30T07:48:18.019Z,100275.38
2017-08-30T07:50:45.422Z,100275.43
2017-08-30T07:53:12.819Z,100276.72
2017-08-30T07:55:40.224Z,100279.84
2017-08-30T07:58:07.618Z,100276.37
2017-08-30T08:00:35.019Z,100267.85
2017-08-30T08:03:02.431Z,100269.73
2017-08-30T08:05:29.818Z,100268.31
2017-08-30T08:07:57.231Z,100258.46
2017-08-30T08:10:24.629Z,100261.69
2017-08-30T08:12:52.032Z,100260.21
2017-08-30T08:15:19.422Z,100263.39
2017-08-30T08:17:46.817Z,100263.87
2017-08-30T08:20:17.475Z,100268.00
2017-08-30T08:22:44.867Z,100262.36
2017-08-30T08:25:12.274Z,100278.90
2017-08-30T08:27:39.671Z,100283.30
2017-08-30T08:30:07.070Z,100281.33
2017-08-30T08:32:34.454Z,100281.72
2017-08-30T08:35:01.871Z,100282.06
2017-08-30T08:37:29.267Z,100276.36
2017-08-30T08:39:56.668Z,100276.53
2017-08-30T08:42:24.058Z,100285.26
2017-08-30T08:44:51.464Z,100289.77
2017-08-30T08:47:18.856Z,100292.77
2017-08-30T08:49:46.251Z,100288.22
2017-08-30T08:52:13.642Z,100279.60
2017-08-30T08:54:41.064Z,100286.03
2017-08-30T08:57:08.458Z,100278.85
2017-08-30T08:59:35.854Z,100276.77
2017-08-30T09:02:03.252Z,100279.08
2017-08-30T09:04:30.656Z,100267.91
2017-08-30T09:06:58.054Z,100259.47
2017-08-30T09:09:25.443Z,100261.36
2017-08-30T09:11:52.842Z,100259.17
2017-08-30T09:14:20.238Z,100255.20
2017-08-30T09:16:47.635Z,100250.80
2017-08-30T09:19:15.032Z,100245.27
2017-08-30T09:21:42.434Z,100238.25
2017-08-30T09:24:09.826Z,100238.95
2017-08-30T09:26:37.225Z,100230.09
2017-08-30T09:29:04.612Z,100229.96
2017-08-30T09:31:32.011Z,100231.06
2017-08-30T09:33:59.403Z,100228.61
2017-08-30T09:36:26.804Z,100222.00
2017-08-30T09:38:54.198Z,100219.83
2017-08-30T09:41:21.613Z,100214.84
2017-08-30T09:43:48.994Z,100219.88
2017-08-30T09:46:16.396Z,100218.77
2017-08-30T09:48:43.790Z,100213.59
2017-08-30T09:51:11.183Z,100213.65
2017-08-30T09:53:38.576Z,100205.14
2017-08-30T09:56:05.981Z,100204.23
2017-08-30T09:58:33.588Z,100210.58
2017-08-30T10:01:00.974Z,100206.42
2017-08-30T10:03:28.372Z,100214.93
2017-08-30T10:05:55.758Z,100216.46
2017-08-30T10:08:23.162Z,100216.89
2017-08-30T10:10:50.551Z,100215.66
2017-08-30T10:13:17.957Z,100206.31
2017-08-30T10:15:45.339Z,100188.88
2017-08-30T10:18:12.734Z,100168.80
2017-08-30T10:20:40.118Z,100169.79
2017-08-30T10:23:07.519Z,100177.91
2017-08-30T10:25:34.932Z,100179.36
2017-08-30T10:28:02.334Z,100184.39
2017-08-30T10:30:29.727Z,100177.91
2017-08-30T10:32:57.338Z,100178.12
2017-08-30T10:35:24.743Z,100181.72
2017-08-30T10:37:52.135Z,100179.27
2017-08-30T10:40:19.536Z,100180.34
2017-08-30T10:42:46.936Z,100181.94
2017-08-30T10:45:14.321Z,100181.05
2017-08-30T10:47:41.734Z,100181.98
2017-08-30T10:50:09.118Z,100176.66
2017-08-30T10:52:36.514Z,100165.45
2017-08-30T10:55:03.917Z,100155.83
2017-08-30T10:57:31.290Z,100150.42
2017-08-30T10:59:58.712Z,100152.92
2017-08-30T11:02:26.099Z,100164.86
2017-08-30T11:04:53.506Z,100181.77
2017-08-30T11:07:20.895Z,100193.30
2017-08-30T11:09:48.507Z,100206.87
2017-08-30T11:12:16.113Z,100204.86
2017-08-30T11:14:43.530Z,100208.10
2017-08-30T11:17:11.611Z,100212.23
2017-08-30T11:19:39.016Z,100212.44
2017-08-30T11:22:06.398Z,100207.13
2017-08-30T11:24:33.790Z,100209.31
2017-08-30T11:27:01.187Z,100202.63
2017-08-30T11:29:28.583Z,100191.03
2017-08-30T11:31:55.991Z,100188.33
2017-08-30T11:34:23.395Z,100187.73
2017-08-30T11:36:50.779Z,100175.33
2017-08-30T11:39:18.170Z,100172.38
2017-08-30T11:41:45.572Z,100174.78
2017-08-30T11:44:12.959Z,100169.30
2017-08-30T11:46:40.346Z,100164.06
2017-08-30T11:49:07.745Z,100157.56
2017-08-30T11:51:35.324Z,100158.07
2017-08-30T11:54:02.725Z,100151.07
2017-08-30T11:56:30.135Z,100134.66
2017-08-30T11:58:57.531Z,100135.36
2017-08-30T12:01:24.928Z,100128.16
2017-08-30T12:03:52.347Z,100132.67
2017-08-30T12:06:19.743Z,100143.78
2017-08-30T12:08:47.131Z,100152.30
2017-08-30T12:11:14.531Z,100149.37
2017-08-30T12:13:41.917Z,100148.77
2017-08-30T12:16:09.314Z,100149.20
2017-08-30T12:18:36.706Z,100144.20
2017-08-30T12:21:04.104Z,100141.66
2017-08-30T12:23:31.507Z,100138.61
2017-08-30T12:25:58.906Z,100136.00
2017-08-30T12:28:26.314Z,100131.69
2017-08-30T12:30:53.935Z,100120.33
2017-08-30T12:33:21.327Z,100113.92
2017-08-30T12:35:48.712Z,100103.16
2017-08-30T12:38:21.758Z,100110.08
2017-08-30T12:40:49.154Z,100092.50
2017-08-30T12:43:16.542Z,100097.20
2017-08-30T12:45:43.938Z,100091.25
2017-08-30T12:48:11.338Z,100086.23
2017-08-30T12:50:38.744Z,100082.50
2017-08-30T12:53:06.143Z,100074.48
2017-08-30T12:55:33.539Z,100068.03
2017-08-30T12:58:00.934Z,100050.23
2017-08-30T13:00:28.326Z,100048.19
2017-08-30T13:02:55.722Z,100037.73
2017-08-30T13:05:23.343Z,100026.92
2017-08-30T13:07:50.746Z,100019.37
2017-08-30T13:10:18.139Z,100013.61
2017-08-30T13:12:45.540Z,100007.59
2017-08-30T13:15:12.947Z,99999.42
2017-08-30T13:17:40.348Z,99994.27
2017-08-30T13:20:07.780Z,99987.16
2017-08-30T13:22:35.168Z,99988.21
2017-08-30T13:25:02.563Z,99986.77
2017-08-30T13:27:29.958Z,99982.11
2017-08-30T13:29:57.375Z,99990.39
2017-08-30T13:32:24.789Z,99993.37
2017-08-30T13:34:52.176Z,99994.14
2017-08-30T13:37:19.571Z,99987.58
2017-08-30T13:39:47.013Z,99981.90
2017-08-30T13:42:14.398Z,99980.55
2017-08-30T13:44:41.804Z,99976.94
2017-08-30T13:47:09.204Z,99981.55
2017-08-30T13:49:36.610Z,99979.34
2017-08-30T13:52:04.000Z,99967.41
2017-08-30T13:54:31.403Z,99969.37
2017-08-30T13:56:58.795Z,99962.35
2017-08-30T13:59:26.199Z,99964.76
2017-08-30T14:01:53.585Z,99964.98
2017-08-30T14:04:20.978Z,99961.79
2017-08-30T14:06:48.401Z,99954.45
2017-08-30T14:09:15.800Z,99949.23
2017-08-30T14:11:43.190Z,99953.91
2017-08-30T14:14:10.595Z,99952.14
2017-08-30T14:16:37.979Z,99946.63
2017-08-30T14:19:05.380Z,99951.67
2017-08-30T14:21:32.775Z,99957.84
2017-08-30T14:24:00.172Z,99971.67
2017-08-30T14:26:27.578Z,99979.05
2017-08-30T14:28:54.969Z,99991.88
2017-08-30T14:31:22.364Z,99994.41
2017-08-30T14:33:49.767Z,100008.53
2017-08-30T14:36:17.171Z,100005.67
2017-08-30T14:38:44.571Z,100002.87
2017-08-30T14:41:11.975Z,100002.58
2017-08-30T14:43:39.588Z,99997.91
2017-08-30T14:46:06.983Z,99993.72
2017-08-30T14:48:34.382Z,99990.06
2017-08-30T14:51:01.770Z,99980.03
2017-08-30T14:53:29.158Z,99982.82
2017-08-30T14:55:56.547Z,99975.78
2017-08-30T14:58:23.949Z,99975.09
2017-08-30T15:00:51.343Z,99971.96
2017-08-30T15:03:18.734Z,99978.49
2017-08-30T15:05:46.121Z,99981.09
2017-08-30T15:08:13.523Z,99984.04
2017-08-30T15:10:40.912Z,99979.27
2017-08-30T15:13:08.317Z,99974.20
2017-08-30T15:15:35.703Z,99974.41
2017-08-30T15:18:03.103Z,99971.97
2017-08-30T15:20:30.501Z,99964.73
2017-08-30T15:22:57.900Z,99958.78
2017-08-30T15:25:25.299Z,99952.50
2017-08-30T15:27:52.686Z,99956.37
2017-08-30T15:30:20.078Z,99959.16
2017-08-30T15:32:47.474Z,99964.35
2017-08-30T15:35:14.867Z,99959.11
2017-08-30T15:37:42.270Z,99958.80
2017-08-30T15:40:09.655Z,99959.25
2017-08-30T15:42:37.040Z,99949.61
2017-08-30T15:45:04.431Z,99945.42
2017-08-30T15:47:31.814Z,99945.73
2017-08-30T15:49:59.210Z,99941.30
2017-08-30T15:52:26.622Z,99939.27
2017-08-30T15:54:54.052Z,99942.95
2017-08-30T15:57:21.434Z,99941.00
2017-08-30T15:59:48.842Z,99930.47
2017-08-30T16:02:16.251Z,99936.00
2017-08-30T16:04:43.650Z,99935.18
2017-08-30T16:07:11.967Z,99935.28
2017-08-30T16:09:39.358Z,99934.05
2017-08-30T16:12:06.747Z,99922.73
2017-08-30T16:14:34.171Z,99917.92
2017-08-30T16:17:01.565Z,99917.78
2017-08-30T16:19:28.962Z,99913.33
2017-08-30T16:21:56.364Z,99913.37
2017-08-30T16:24:23.754Z,99913.09
2017-08-30T16:26:51.144Z,99913.33
2017-08-30T16:29:18.545Z,99912.28
2017-08-30T16:31:45.939Z,99912.05
2017-08-30T16:34:13.338Z,99907.05
2017-08-30T16:36:40.727Z,99913.33
2017-08-30T16:39:08.136Z,99915.88
2017-08-30T16:41:35.522Z,99916.28
2017-08-30T16:44:02.910Z,99909.82
2017-08-30T16:46:30.320Z,99903.10
2017-08-30T16:48:57.712Z,99911.11
2017-08-30T16:51:25.323Z,99906.05
2017-08-30T16:53:52.718Z,99908.23
2017-08-30T16:56:20.115Z,99902.28
2017-08-30T16:58:47.536Z,99897.09
2017-08-30T17:01:14.930Z,99883.83
2017-08-30T17:03:42.319Z,99886.19
2017-08-30T17:06:09.769Z,99885.60
2017-08-30T17:08:37.160Z,99876.84
2017-08-30T17:11:04.558Z,99881.39
2017-08-30T17:13:31.954Z,99880.61
2017-08-30T17:16:00.159Z,99873.89
2017-08-30T17:18:27.547Z,99877.84
2017-08-30T17:20:54.955Z,99873.89
2017-08-30T17:23:22.563Z,99880.11
2017-08-30T17:25:49.971Z,99875.94
2017-08-30T17:28:17.350Z,99880.71
2017-08-30T17:30:44.815Z,99870.94
2017-08-30T17:33:12.241Z,99873.94
2017-08-30T17:35:39.630Z,99874.70
2017-08-30T17:38:07.050Z,99883.70
2017-08-30T17:40:34.440Z,99884.42
2017-08-30T17:43:01.833Z,99890.88
2017-08-30T17:45:29.218Z,99887.23
2017-08-30T17:47:56.619Z,99887.18
2017-08-30T17:50:24.019Z,99881.73
2017-08-30T17:52:51.630Z,99883.09
2017-08-30T17:55:19.034Z,99885.39
2017-08-30T17:57:46.426Z,99890.22
2017-08-30T18:00:14.026Z,99896.31
2017-08-30T18:02:41.435Z,99886.00
2017-08-30T18:05:09.638Z,99877.91
2017-08-30T18:07:37.046Z,99881.89
2017-08-30T18:10:04.435Z,99879.61
2017-08-30T18:12:32.047Z,99888.29
2017-08-30T18:14:59.440Z,99892.58
2017-08-30T18:17:26.908Z,99906.20
2017-08-30T18:19:54.278Z,99898.03
2017-08-30T18:22:21.688Z,99891.22
2017-08-30T18:24:49.103Z,99877.50
2017-08-30T18:27:16.494Z,99886.67
2017-08-30T18:29:43.894Z,99883.95
2017-08-30T18:32:11.299Z,99891.55
2017-08-30T18:34:38.733Z,99896.48
2017-08-30T18:37:06.123Z,99904.72
2017-08-30T18:39:33.535Z,99905.44
2017-08-30T18:42:00.927Z,99913.69
2017-08-30T18:44:28.321Z,99904.86
2017-08-30T18:46:55.706Z,99913.98
2017-08-30T18:49:23.115Z,99919.91
2017-08-30T18:51:50.522Z,99921.08
2017-08-30T18:54:17.923Z,99917.28
2017-08-30T18:56:45.319Z,99919.77
2017-08-30T18:59:12.752Z,99913.79
2017-08-30T19:01:40.131Z,99915.49
2017-08-30T19:04:07.531Z,99923.39
2017-08-30T19:06:34.919Z,99917.66
2017-08-30T19:09:02.327Z,99923.20
2017-08-30T19:11:29.732Z,99919.26
2017-08-30T19:13:57.130Z,99918.03
2017-08-30T19:16:24.539Z,99921.91
2017-08-30T19:18:51.938Z,99924.15
2017-08-30T19:21:19.333Z,99932.22
2017-08-30T19:23:46.727Z,99926.59
2017-08-30T19:26:14.135Z,99928.12
2017-08-30T19:28:41.531Z,99929.36
2017-08-30T19:31:08.952Z,99930.80
2017-08-30T19:33:36.343Z,99932.20
2017-08-30T19:36:03.735Z,99942.84
2017-08-30T19:38:31.127Z,99954.85
2017-08-30T19:40:58.519Z,99958.53
2017-08-30T19:43:25.918Z,99961.68
2017-08-30T19:45:53.311Z,99962.70
2017-08-30T19:48:20.714Z,99968.06
2017-08-30T19:50:48.315Z,99974.73
2017-08-30T19:53:15.716Z,99978.03
2017-08-30T19:55:43.118Z,99981.86
2017-08-30T19:58:10.528Z,99985.20
2017-08-30T20:00:37.920Z,99978.72
2017-08-30T20:03:05.317Z,99943.79
2017-08-30T20:05:32.707Z,99943.33
2017-08-30T20:08:00.111Z,99956.28
2017-08-30T20:10:27.532Z,99945.39
2017-08-30T20:12:54.935Z,99938.23
2017-08-30T20:15:22.331Z,99933.63
2017-08-30T20:17:49.726Z,99933.96
2017-08-30T20:20:17.335Z,99934.30
2017-08-30T20:22:44.735Z,99928.81
2017-08-30T20:25:12.143Z,99919.31
2017-08-30T20:27:39.555Z,99919.02
2017-08-30T20:30:06.947Z,99928.12
2017-08-30T20:32:34.340Z,99933.46
2017-08-30T20:35:01.738Z,99934.23
2017-08-30T20:37:29.155Z,99937.00
2017-08-30T20:39:56.555Z,99928.94
2017-08-30T20:42:23.939Z,99927.13
2017-08-30T20:44:51.342Z,99926.11
2017-08-30T20:47:18.731Z,99935.56
2017-08-30T20:49:46.132Z,99942.55
2017-08-30T20:52:13.530Z,99955.37
2017-08-30T20:54:40.936Z,99969.39
2017-08-30T20:57:08.327Z,99965.48
2017-08-30T20:59:35.711Z,99956.84
2017-08-30T21:02:03.116Z,99946.32
2017-08-30T21:04:30.519Z,99937.83
2017-08-30T21:06:57.914Z,99941.52
2017-08-30T21:09:25.323Z,99943.16
2017-08-30T21:11:52.711Z,99954.52
2017-08-30T21:14:20.122Z,99964.77
2017-08-30T21:16:47.521Z,99965.83
2017-08-30T21:19:14.917Z,99965.84
2017-08-30T21:21:42.315Z,99965.27
2017-08-30T21:24:09.815Z,99965.45
2017-08-30T21:26:37.198Z,99983.59
2017-08-30T21:29:04.603Z,99975.77
2017-08-30T21:31:32.003Z,99964.50
2017-08-30T21:33:59.407Z,99958.14
2017-08-30T21:36:26.807Z,99952.10
2017-08-30T21:38:54.222Z,99956.78
2017-08-30T21:41:21.624Z,99960.35
2017-08-30T21:43:49.019Z,99965.95
2017-08-30T21:46:16.419Z,99970.10
2017-08-30T21:48:44.023Z,99976.02
2017-08-30T21:51:11.419Z,99980.95
2017-08-30T21:53:38.810Z,99993.70
2017-08-30T21:56:06.210Z,99991.11
2017-08-30T21:58:33.602Z,99994.12
2017-08-30T22:01:01.023Z,99999.98
2017-08-30T22:03:28.406Z,99998.80
2017-08-30T22:05:55.799Z,99995.94
2017-08-30T22:08:23.194Z,99993.83
2017-08-30T22:10:50.594Z,99995.50
2017-08-30T22:13:17.999Z,99993.53
2017-08-30T22:15:45.391Z,99988.31
2017-08-30T22:18:12.786Z,99997.09
2017-08-30T22:20:40.176Z,99989.08
2017-08-30T22:23:07.575Z,99997.21
2017-08-30T22:25:34.979Z,100007.52
2017-08-30T22:28:02.384Z,100002.16
2017-08-30T22:30:29.775Z,99996.41
2017-08-30T22:32:57.382Z,99986.75
2017-08-30T22:35:24.771Z,99988.48
2017-08-30T22:37:52.171Z,99987.63
2017-08-30T22:40:19.574Z,99975.38
2017-08-30T22:42:47.004Z,99966.01
2017-08-30T22:45:14.395Z,99966.45
2017-08-30T22:47:41.788Z,99958.58
2017-08-30T22:50:09.202Z,99952.55
2017-08-30T22:52:36.606Z,99950.72
2017-08-30T22:55:04.004Z,99954.03
2017-08-30T22:57:31.395Z,99950.28
2017-08-30T22:59:58.824Z,99950.05
2017-08-30T23:02:26.215Z,99954.25
2017-08-30T23:04:53.627Z,99951.86
2017-08-30T23:07:21.015Z,99948.83
2017-08-30T23:09:48.431Z,99941.83
2017-08-30T23:12:15.819Z,99933.46
2017-08-30T23:14:43.227Z,99929.22
2017-08-30T23:17:10.620Z,99928.36
2017-08-30T23:19:38.019Z,99919.09
2017-08-30T23:22:05.415Z,99927.25
2017-08-30T23:24:33.032Z,99918.38
2017-08-30T23:27:00.429Z,99920.14
2017-08-30T23:29:27.835Z,99927.84
2017-08-30T23:31:55.230Z,99927.34
2017-08-30T23:34:22.622Z,99934.78
2017-08-30T23:36:50.041Z,99936.05
2017-08-30T23:39:17.434Z,99932.77
2017-08-30T23:41:44.839Z,99925.59
2017-08-30T23:44:12.231Z,99932.05
2017-08-30T23:46:39.630Z,99929.55
2017-08-30T23:49:07.024Z,99926.50
2017-08-30T23:51:34.427Z,99928.14
2017-08-30T23:54:01.843Z,99930.52
2017-08-30T23:56:29.234Z,99937.28
2017-08-30T23:58:56.635Z,99939.86
